sensor_id;sensor_type;location;lat;lon;timestamp;temperature;humidity
21149;DHT22;10732;51.472;6.466;2024-03-07T00:00:07;4.40;99.90
21149;DHT22;10732;51.472;6.466;2024-03-07T00:02:50;4.30;99.90
21149;DHT22;10732;51.472;6.466;2024-03-07T00:05:21;4.40;99.90
21149;DHT22;10732;51.472;6.466;2024-03-07T00:07:50;4.40;99.90
21149;DHT22;10732;51.472;6.466;2024-03-07T00:10:16;4.40;99.90
21149;DHT22;10732;51.472;6.466;2024-03-07T00:12:43;4.30;99.90
21149;DHT22;10732;51.472;6.466;2024-03-07T00:15:10;4.20;99.90
21149;DHT22;10732;51.472;6.466;2024-03-07T00:17:39;4.30;99.90
21149;DHT22;10732;51.472;6.466;2024-03-07T00:20:05;4.20;99.90
21149;DHT22;10732;51.472;6.466;2024-03-07T00:22:35;4.20;99.90
21149;DHT22;10732;51.472;6.466;2024-03-07T00:25:01;4.20;99.90
21149;DHT22;10732;51.472;6.466;2024-03-07T00:27:27;4.10;99.90
21149;DHT22;10732;51.472;6.466;2024-03-07T00:29:53;4.10;99.90
21149;DHT22;10732;51.472;6.466;2024-03-07T00:32:22;4.10;99.90
21149;DHT22;10732;51.472;6.466;2024-03-07T00:34:49;4.10;99.90
21149;DHT22;10732;51.472;6.466;2024-03-07T00:37:16;4.10;99.90
21149;DHT22;10732;51.472;6.466;2024-03-07T00:39:41;4.00;99.90
21149;DHT22;10732;51.472;6.466;2024-03-07T00:42:08;4.00;99.90
21149;DHT22;10732;51.472;6.466;2024-03-07T00:44:33;4.00;99.90
21149;DHT22;10732;51.472;6.466;2024-03-07T00:47:00;3.90;99.90
21149;DHT22;10732;51.472;6.466;2024-03-07T00:49:27;3.80;99.90
21149;DHT22;10732;51.472;6.466;2024-03-07T00:51:53;3.80;99.90
21149;DHT22;10732;51.472;6.466;2024-03-07T00:54:19;3.70;99.90
21149;DHT22;10732;51.472;6.466;2024-03-07T00:56:45;3.70;99.90
21149;DHT22;10732;51.472;6.466;2024-03-07T00:59:13;3.80;99.90
21149;DHT22;10732;51.472;6.466;2024-03-07T01:01:39;3.70;99.90
21149;DHT22;10732;51.472;6.466;2024-03-07T01:04:07;3.70;99.90
21149;DHT22;10732;51.472;6.466;2024-03-07T01:06:33;3.70;99.90
21149;DHT22;10732;51.472;6.466;2024-03-07T01:08:59;3.80;99.90
21149;DHT22;10732;51.472;6.466;2024-03-07T01:11:24;3.80;99.90
21149;DHT22;10732;51.472;6.466;2024-03-07T01:13:50;3.80;99.90
21149;DHT22;10732;51.472;6.466;2024-03-07T01:16:16;3.70;99.90
21149;DHT22;10732;51.472;6.466;2024-03-07T01:18:41;3.70;99.90
21149;DHT22;10732;51.472;6.466;2024-03-07T01:21:07;3.70;99.90
21149;DHT22;10732;51.472;6.466;2024-03-07T01:23:34;3.70;99.90
21149;DHT22;10732;51.472;6.466;2024-03-07T01:25:59;3.60;99.90
21149;DHT22;10732;51.472;6.466;2024-03-07T01:28:26;3.60;99.90
21149;DHT22;10732;51.472;6.466;2024-03-07T01:30:55;3.60;99.90
21149;DHT22;10732;51.472;6.466;2024-03-07T01:33:21;3.60;99.90
21149;DHT22;10732;51.472;6.466;2024-03-07T01:35:47;3.50;99.90
21149;DHT22;10732;51.472;6.466;2024-03-07T01:38:14;3.50;99.90
21149;DHT22;10732;51.472;6.466;2024-03-07T01:40:43;3.50;99.90
21149;DHT22;10732;51.472;6.466;2024-03-07T01:43:09;3.50;99.90
21149;DHT22;10732;51.472;6.466;2024-03-07T01:45:36;3.50;99.90
21149;DHT22;10732;51.472;6.466;2024-03-07T01:48:09;3.50;99.90
21149;DHT22;10732;51.472;6.466;2024-03-07T01:50:36;3.40;99.90
21149;DHT22;10732;51.472;6.466;2024-03-07T01:53:06;3.40;99.90
21149;DHT22;10732;51.472;6.466;2024-03-07T01:55:32;3.40;99.90
21149;DHT22;10732;51.472;6.466;2024-03-07T01:58:02;3.40;99.90
21149;DHT22;10732;51.472;6.466;2024-03-07T02:00:30;3.40;99.90
21149;DHT22;10732;51.472;6.466;2024-03-07T02:02:55;3.50;99.90
21149;DHT22;10732;51.472;6.466;2024-03-07T02:05:22;3.50;99.90
21149;DHT22;10732;51.472;6.466;2024-03-07T02:07:47;3.50;99.90
21149;DHT22;10732;51.472;6.466;2024-03-07T02:10:13;3.50;99.90
21149;DHT22;10732;51.472;6.466;2024-03-07T02:12:39;3.50;99.90
21149;DHT22;10732;51.472;6.466;2024-03-07T02:15:05;3.50;99.90
21149;DHT22;10732;51.472;6.466;2024-03-07T02:17:30;3.40;99.90
21149;DHT22;10732;51.472;6.466;2024-03-07T02:19:56;3.50;99.90
21149;DHT22;10732;51.472;6.466;2024-03-07T02:22:23;3.50;99.90
21149;DHT22;10732;51.472;6.466;2024-03-07T02:24:50;3.50;99.90
21149;DHT22;10732;51.472;6.466;2024-03-07T02:27:15;3.50;99.90
21149;DHT22;10732;51.472;6.466;2024-03-07T02:29:41;3.60;99.90
21149;DHT22;10732;51.472;6.466;2024-03-07T02:32:07;3.50;99.90
21149;DHT22;10732;51.472;6.466;2024-03-07T02:34:32;3.50;99.90
21149;DHT22;10732;51.472;6.466;2024-03-07T02:36:58;3.50;99.90
21149;DHT22;10732;51.472;6.466;2024-03-07T02:39:23;3.50;99.90
21149;DHT22;10732;51.472;6.466;2024-03-07T02:41:52;3.40;99.90
21149;DHT22;10732;51.472;6.466;2024-03-07T02:44:17;3.40;99.90
21149;DHT22;10732;51.472;6.466;2024-03-07T02:46:43;3.40;99.90
21149;DHT22;10732;51.472;6.466;2024-03-07T02:49:09;3.30;99.90
21149;DHT22;10732;51.472;6.466;2024-03-07T02:51:34;3.30;99.90
21149;DHT22;10732;51.472;6.466;2024-03-07T02:54:01;3.30;99.90
21149;DHT22;10732;51.472;6.466;2024-03-07T02:56:26;3.40;99.90
21149;DHT22;10732;51.472;6.466;2024-03-07T02:58:52;3.40;99.90
21149;DHT22;10732;51.472;6.466;2024-03-07T03:01:18;3.40;99.90
21149;DHT22;10732;51.472;6.466;2024-03-07T03:03:43;3.40;99.90
21149;DHT22;10732;51.472;6.466;2024-03-07T03:06:10;3.30;99.90
21149;DHT22;10732;51.472;6.466;2024-03-07T03:08:36;3.30;99.90
21149;DHT22;10732;51.472;6.466;2024-03-07T03:11:02;3.20;99.90
21149;DHT22;10732;51.472;6.466;2024-03-07T03:13:27;3.20;99.90
21149;DHT22;10732;51.472;6.466;2024-03-07T03:15:54;3.20;99.90
21149;DHT22;10732;51.472;6.466;2024-03-07T03:18:24;3.20;99.90
21149;DHT22;10732;51.472;6.466;2024-03-07T03:20:50;3.10;99.90
21149;DHT22;10732;51.472;6.466;2024-03-07T03:23:18;3.10;99.90
21149;DHT22;10732;51.472;6.466;2024-03-07T03:25:44;3.10;99.90
21149;DHT22;10732;51.472;6.466;2024-03-07T03:28:11;3.00;99.90
21149;DHT22;10732;51.472;6.466;2024-03-07T03:30:38;2.90;99.90
21149;DHT22;10732;51.472;6.466;2024-03-07T03:33:04;3.00;99.90
21149;DHT22;10732;51.472;6.466;2024-03-07T03:35:31;3.00;99.90
21149;DHT22;10732;51.472;6.466;2024-03-07T03:37:56;3.00;99.90
21149;DHT22;10732;51.472;6.466;2024-03-07T03:40:22;2.90;99.90
21149;DHT22;10732;51.472;6.466;2024-03-07T03:42:48;2.90;99.90
21149;DHT22;10732;51.472;6.466;2024-03-07T03:45:14;2.90;99.90
21149;DHT22;10732;51.472;6.466;2024-03-07T03:47:43;2.90;99.90
21149;DHT22;10732;51.472;6.466;2024-03-07T03:50:10;2.90;99.90
21149;DHT22;10732;51.472;6.466;2024-03-07T03:52:37;2.90;99.90
21149;DHT22;10732;51.472;6.466;2024-03-07T03:55:03;2.90;99.90
21149;DHT22;10732;51.472;6.466;2024-03-07T03:57:31;2.90;99.90
21149;DHT22;10732;51.472;6.466;2024-03-07T03:59:57;2.90;99.90
21149;DHT22;10732;51.472;6.466;2024-03-07T04:02:23;2.90;99.90
21149;DHT22;10732;51.472;6.466;2024-03-07T04:04:49;2.90;99.90
21149;DHT22;10732;51.472;6.466;2024-03-07T04:07:15;2.80;99.90
21149;DHT22;10732;51.472;6.466;2024-03-07T04:09:42;2.80;99.90
21149;DHT22;10732;51.472;6.466;2024-03-07T04:12:08;2.80;99.90
21149;DHT22;10732;51.472;6.466;2024-03-07T04:14:45;2.80;99.90
21149;DHT22;10732;51.472;6.466;2024-03-07T04:17:11;2.70;99.90
21149;DHT22;10732;51.472;6.466;2024-03-07T04:19:41;2.70;99.90
21149;DHT22;10732;51.472;6.466;2024-03-07T04:22:08;2.60;99.90
21149;DHT22;10732;51.472;6.466;2024-03-07T04:24:36;2.50;99.90
21149;DHT22;10732;51.472;6.466;2024-03-07T04:27:03;2.60;99.90
21149;DHT22;10732;51.472;6.466;2024-03-07T04:29:30;2.60;99.90
21149;DHT22;10732;51.472;6.466;2024-03-07T04:31:56;2.60;99.90
21149;DHT22;10732;51.472;6.466;2024-03-07T04:34:21;2.50;99.90
21149;DHT22;10732;51.472;6.466;2024-03-07T04:36:47;2.50;99.90
21149;DHT22;10732;51.472;6.466;2024-03-07T04:39:13;2.40;99.90
21149;DHT22;10732;51.472;6.466;2024-03-07T04:41:58;2.50;99.90
21149;DHT22;10732;51.472;6.466;2024-03-07T04:44:26;2.50;99.90
21149;DHT22;10732;51.472;6.466;2024-03-07T04:46:51;2.40;99.90
21149;DHT22;10732;51.472;6.466;2024-03-07T04:49:24;2.50;99.90
21149;DHT22;10732;51.472;6.466;2024-03-07T04:51:55;2.40;99.90
21149;DHT22;10732;51.472;6.466;2024-03-07T04:54:22;2.40;99.90
21149;DHT22;10732;51.472;6.466;2024-03-07T04:56:49;2.40;99.90
21149;DHT22;10732;51.472;6.466;2024-03-07T04:59:15;2.40;99.90
21149;DHT22;10732;51.472;6.466;2024-03-07T05:01:42;2.40;99.90
21149;DHT22;10732;51.472;6.466;2024-03-07T05:04:08;2.40;99.90
21149;DHT22;10732;51.472;6.466;2024-03-07T05:06:34;2.50;99.90
21149;DHT22;10732;51.472;6.466;2024-03-07T05:09:04;2.50;99.90
21149;DHT22;10732;51.472;6.466;2024-03-07T05:11:30;2.50;99.90
21149;DHT22;10732;51.472;6.466;2024-03-07T05:13:57;2.50;99.90
21149;DHT22;10732;51.472;6.466;2024-03-07T05:16:23;2.50;99.90
21149;DHT22;10732;51.472;6.466;2024-03-07T05:18:49;2.60;99.90
21149;DHT22;10732;51.472;6.466;2024-03-07T05:21:16;2.60;99.90
21149;DHT22;10732;51.472;6.466;2024-03-07T05:24:13;2.60;99.90
21149;DHT22;10732;51.472;6.466;2024-03-07T05:26:40;2.60;99.90
21149;DHT22;10732;51.472;6.466;2024-03-07T05:29:07;2.60;99.90
21149;DHT22;10732;51.472;6.466;2024-03-07T05:31:38;2.60;99.90
21149;DHT22;10732;51.472;6.466;2024-03-07T05:34:06;2.60;99.90
21149;DHT22;10732;51.472;6.466;2024-03-07T05:36:35;2.60;99.90
21149;DHT22;10732;51.472;6.466;2024-03-07T05:39:02;2.70;99.90
21149;DHT22;10732;51.472;6.466;2024-03-07T05:41:39;2.70;99.90
21149;DHT22;10732;51.472;6.466;2024-03-07T05:44:05;2.70;99.90
21149;DHT22;10732;51.472;6.466;2024-03-07T05:46:41;2.70;99.90
21149;DHT22;10732;51.472;6.466;2024-03-07T05:49:11;2.60;99.90
21149;DHT22;10732;51.472;6.466;2024-03-07T05:51:37;2.70;99.90
21149;DHT22;10732;51.472;6.466;2024-03-07T05:54:03;2.60;99.90
21149;DHT22;10732;51.472;6.466;2024-03-07T05:56:35;2.60;99.90
21149;DHT22;10732;51.472;6.466;2024-03-07T05:59:02;2.60;99.90
21149;DHT22;10732;51.472;6.466;2024-03-07T06:01:33;2.60;99.90
21149;DHT22;10732;51.472;6.466;2024-03-07T06:04:03;2.60;99.90
21149;DHT22;10732;51.472;6.466;2024-03-07T06:06:31;2.60;99.90
21149;DHT22;10732;51.472;6.466;2024-03-07T06:09:00;2.60;99.90
21149;DHT22;10732;51.472;6.466;2024-03-07T06:11:25;2.50;99.90
21149;DHT22;10732;51.472;6.466;2024-03-07T06:13:51;2.50;99.90
21149;DHT22;10732;51.472;6.466;2024-03-07T06:16:17;2.50;99.90
21149;DHT22;10732;51.472;6.466;2024-03-07T06:18:43;2.50;99.90
21149;DHT22;10732;51.472;6.466;2024-03-07T06:21:11;2.50;99.90
21149;DHT22;10732;51.472;6.466;2024-03-07T06:23:38;2.60;99.90
21149;DHT22;10732;51.472;6.466;2024-03-07T06:26:04;2.50;99.90
21149;DHT22;10732;51.472;6.466;2024-03-07T06:28:41;2.60;99.90
21149;DHT22;10732;51.472;6.466;2024-03-07T06:31:06;2.60;99.90
21149;DHT22;10732;51.472;6.466;2024-03-07T06:33:33;2.60;99.90
21149;DHT22;10732;51.472;6.466;2024-03-07T06:35:59;2.70;99.90
21149;DHT22;10732;51.472;6.466;2024-03-07T06:38:26;2.70;99.90
21149;DHT22;10732;51.472;6.466;2024-03-07T06:40:52;2.70;99.90
21149;DHT22;10732;51.472;6.466;2024-03-07T06:43:18;2.80;99.90
21149;DHT22;10732;51.472;6.466;2024-03-07T06:45:44;2.80;99.90
21149;DHT22;10732;51.472;6.466;2024-03-07T06:48:11;2.90;99.90
21149;DHT22;10732;51.472;6.466;2024-03-07T06:50:38;2.90;99.90
21149;DHT22;10732;51.472;6.466;2024-03-07T06:53:04;3.00;99.90
21149;DHT22;10732;51.472;6.466;2024-03-07T06:55:32;3.00;99.90
21149;DHT22;10732;51.472;6.466;2024-03-07T06:58:00;3.00;99.90
21149;DHT22;10732;51.472;6.466;2024-03-07T07:00:26;3.10;99.90
21149;DHT22;10732;51.472;6.466;2024-03-07T07:02:52;3.10;99.90
21149;DHT22;10732;51.472;6.466;2024-03-07T07:05:20;3.20;99.90
21149;DHT22;10732;51.472;6.466;2024-03-07T07:07:46;3.30;99.90
21149;DHT22;10732;51.472;6.466;2024-03-07T07:10:12;3.40;99.90
21149;DHT22;10732;51.472;6.466;2024-03-07T07:12:50;3.40;99.90
21149;DHT22;10732;51.472;6.466;2024-03-07T07:15:20;3.40;99.90
21149;DHT22;10732;51.472;6.466;2024-03-07T07:17:46;3.50;99.90
21149;DHT22;10732;51.472;6.466;2024-03-07T07:20:12;3.50;99.90
21149;DHT22;10732;51.472;6.466;2024-03-07T07:22:41;3.60;99.90
21149;DHT22;10732;51.472;6.466;2024-03-07T07:25:07;3.70;99.90
21149;DHT22;10732;51.472;6.466;2024-03-07T07:27:40;3.70;99.90
21149;DHT22;10732;51.472;6.466;2024-03-07T07:30:07;3.80;99.90
21149;DHT22;10732;51.472;6.466;2024-03-07T07:32:33;3.80;99.90
21149;DHT22;10732;51.472;6.466;2024-03-07T07:34:59;3.90;99.90
21149;DHT22;10732;51.472;6.466;2024-03-07T07:37:24;4.10;99.90
21149;DHT22;10732;51.472;6.466;2024-03-07T07:39:50;4.20;99.90
21149;DHT22;10732;51.472;6.466;2024-03-07T07:42:16;4.20;99.90
21149;DHT22;10732;51.472;6.466;2024-03-07T07:44:42;4.30;99.90
21149;DHT22;10732;51.472;6.466;2024-03-07T07:47:09;4.30;99.90
21149;DHT22;10732;51.472;6.466;2024-03-07T07:49:39;4.40;99.90
21149;DHT22;10732;51.472;6.466;2024-03-07T07:52:05;4.40;99.90
21149;DHT22;10732;51.472;6.466;2024-03-07T07:54:32;4.50;99.90
21149;DHT22;10732;51.472;6.466;2024-03-07T07:56:57;4.70;99.90
21149;DHT22;10732;51.472;6.466;2024-03-07T07:59:23;5.40;99.90
21149;DHT22;10732;51.472;6.466;2024-03-07T08:01:48;6.30;99.90
21149;DHT22;10732;51.472;6.466;2024-03-07T08:04:15;6.90;99.90
21149;DHT22;10732;51.472;6.466;2024-03-07T08:06:41;7.30;99.90
21149;DHT22;10732;51.472;6.466;2024-03-07T08:09:06;8.10;99.90
21149;DHT22;10732;51.472;6.466;2024-03-07T08:11:35;8.60;99.90
21149;DHT22;10732;51.472;6.466;2024-03-07T08:14:02;10.00;99.90
21149;DHT22;10732;51.472;6.466;2024-03-07T08:16:28;10.00;99.90
21149;DHT22;10732;51.472;6.466;2024-03-07T08:18:53;8.90;99.90
21149;DHT22;10732;51.472;6.466;2024-03-07T08:21:19;8.70;99.90
21149;DHT22;10732;51.472;6.466;2024-03-07T08:23:44;9.20;99.90
21149;DHT22;10732;51.472;6.466;2024-03-07T08:26:11;9.20;99.90
21149;DHT22;10732;51.472;6.466;2024-03-07T08:28:37;9.30;99.90
21149;DHT22;10732;51.472;6.466;2024-03-07T08:31:03;8.70;99.90
21149;DHT22;10732;51.472;6.466;2024-03-07T08:33:29;9.90;99.90
21149;DHT22;10732;51.472;6.466;2024-03-07T08:35:58;10.20;99.90
21149;DHT22;10732;51.472;6.466;2024-03-07T08:38:24;10.80;99.90
21149;DHT22;10732;51.472;6.466;2024-03-07T08:40:50;10.90;99.90
21149;DHT22;10732;51.472;6.466;2024-03-07T08:43:16;11.30;99.90
21149;DHT22;10732;51.472;6.466;2024-03-07T08:45:41;11.20;99.90
21149;DHT22;10732;51.472;6.466;2024-03-07T08:48:07;11.50;99.90
21149;DHT22;10732;51.472;6.466;2024-03-07T08:50:34;11.10;99.90
21149;DHT22;10732;51.472;6.466;2024-03-07T08:53:00;11.50;99.90
21149;DHT22;10732;51.472;6.466;2024-03-07T08:55:29;12.20;99.90
21149;DHT22;10732;51.472;6.466;2024-03-07T08:57:56;12.10;99.90
21149;DHT22;10732;51.472;6.466;2024-03-07T09:00:22;12.70;99.90
21149;DHT22;10732;51.472;6.466;2024-03-07T09:02:53;13.60;99.90
21149;DHT22;10732;51.472;6.466;2024-03-07T09:05:19;13.00;99.90
21149;DHT22;10732;51.472;6.466;2024-03-07T09:07:46;12.50;99.90
21149;DHT22;10732;51.472;6.466;2024-03-07T09:10:12;12.40;99.90
21149;DHT22;10732;51.472;6.466;2024-03-07T09:12:40;12.90;99.90
21149;DHT22;10732;51.472;6.466;2024-03-07T09:15:06;11.90;99.90
21149;DHT22;10732;51.472;6.466;2024-03-07T09:17:31;12.30;99.90
21149;DHT22;10732;51.472;6.466;2024-03-07T09:19:57;12.00;99.90
21149;DHT22;10732;51.472;6.466;2024-03-07T09:22:23;11.90;99.90
21149;DHT22;10732;51.472;6.466;2024-03-07T09:24:48;12.30;99.90
21149;DHT22;10732;51.472;6.466;2024-03-07T09:27:14;12.20;99.90
21149;DHT22;10732;51.472;6.466;2024-03-07T09:29:41;12.20;99.90
21149;DHT22;10732;51.472;6.466;2024-03-07T09:32:06;12.70;99.90
21149;DHT22;10732;51.472;6.466;2024-03-07T09:34:34;12.90;99.90
21149;DHT22;10732;51.472;6.466;2024-03-07T09:37:01;12.80;99.90
21149;DHT22;10732;51.472;6.466;2024-03-07T09:39:27;13.50;99.90
21149;DHT22;10732;51.472;6.466;2024-03-07T09:41:53;12.40;99.90
21149;DHT22;10732;51.472;6.466;2024-03-07T09:44:20;12.50;99.90
21149;DHT22;10732;51.472;6.466;2024-03-07T09:46:53;13.70;99.90
21149;DHT22;10732;51.472;6.466;2024-03-07T09:49:19;13.60;99.90
21149;DHT22;10732;51.472;6.466;2024-03-07T09:51:46;13.80;99.90
21149;DHT22;10732;51.472;6.466;2024-03-07T09:54:12;13.60;99.90
21149;DHT22;10732;51.472;6.466;2024-03-07T09:56:39;13.70;99.90
21149;DHT22;10732;51.472;6.466;2024-03-07T09:59:11;14.50;99.90
21149;DHT22;10732;51.472;6.466;2024-03-07T10:01:39;14.90;99.90
21149;DHT22;10732;51.472;6.466;2024-03-07T10:04:10;14.10;99.90
21149;DHT22;10732;51.472;6.466;2024-03-07T10:06:38;14.40;99.90
21149;DHT22;10732;51.472;6.466;2024-03-07T10:09:05;14.20;99.90
21149;DHT22;10732;51.472;6.466;2024-03-07T10:11:33;13.50;99.90
21149;DHT22;10732;51.472;6.466;2024-03-07T10:13:59;13.30;99.90
21149;DHT22;10732;51.472;6.466;2024-03-07T10:16:25;11.90;99.90
21149;DHT22;10732;51.472;6.466;2024-03-07T10:18:50;10.50;99.90
21149;DHT22;10732;51.472;6.466;2024-03-07T10:21:20;11.40;99.90
21149;DHT22;10732;51.472;6.466;2024-03-07T10:23:46;11.60;99.90
21149;DHT22;10732;51.472;6.466;2024-03-07T10:26:12;12.40;99.90
21149;DHT22;10732;51.472;6.466;2024-03-07T10:28:38;13.00;99.90
21149;DHT22;10732;51.472;6.466;2024-03-07T10:31:04;12.30;99.90
21149;DHT22;10732;51.472;6.466;2024-03-07T10:33:34;12.00;99.90
21149;DHT22;10732;51.472;6.466;2024-03-07T10:36:00;11.10;99.90
21149;DHT22;10732;51.472;6.466;2024-03-07T10:38:26;10.70;99.90
21149;DHT22;10732;51.472;6.466;2024-03-07T10:40:54;10.90;99.90
21149;DHT22;10732;51.472;6.466;2024-03-07T10:43:21;11.30;99.90
21149;DHT22;10732;51.472;6.466;2024-03-07T10:45:48;11.20;99.90
21149;DHT22;10732;51.472;6.466;2024-03-07T10:48:18;11.30;99.90
21149;DHT22;10732;51.472;6.466;2024-03-07T10:59:18;10.80;99.90
21149;DHT22;10732;51.472;6.466;2024-03-07T11:02:20;10.50;99.90
21149;DHT22;10732;51.472;6.466;2024-03-07T11:04:56;10.90;99.90
21149;DHT22;10732;51.472;6.466;2024-03-07T11:07:23;10.70;99.90
21149;DHT22;10732;51.472;6.466;2024-03-07T11:09:49;10.80;99.90
21149;DHT22;10732;51.472;6.466;2024-03-07T11:12:19;10.80;99.90
21149;DHT22;10732;51.472;6.466;2024-03-07T11:14:47;11.00;99.90
21149;DHT22;10732;51.472;6.466;2024-03-07T11:17:15;10.80;99.90
21149;DHT22;10732;51.472;6.466;2024-03-07T11:19:41;11.10;99.90
21149;DHT22;10732;51.472;6.466;2024-03-07T11:22:07;11.10;99.90
21149;DHT22;10732;51.472;6.466;2024-03-07T11:25:01;11.20;99.90
21149;DHT22;10732;51.472;6.466;2024-03-07T11:27:32;11.00;99.90
21149;DHT22;10732;51.472;6.466;2024-03-07T11:30:05;10.90;99.90
21149;DHT22;10732;51.472;6.466;2024-03-07T11:32:35;10.90;99.90
21149;DHT22;10732;51.472;6.466;2024-03-07T11:35:04;11.80;99.90
21149;DHT22;10732;51.472;6.466;2024-03-07T11:37:40;13.20;99.90
21149;DHT22;10732;51.472;6.466;2024-03-07T11:40:10;13.40;99.90
21149;DHT22;10732;51.472;6.466;2024-03-07T11:42:45;12.70;99.90
21149;DHT22;10732;51.472;6.466;2024-03-07T11:45:13;13.40;99.90
21149;DHT22;10732;51.472;6.466;2024-03-07T11:47:54;13.20;99.90
21149;DHT22;10732;51.472;6.466;2024-03-07T11:50:28;13.40;99.90
21149;DHT22;10732;51.472;6.466;2024-03-07T11:52:55;12.80;99.90
21149;DHT22;10732;51.472;6.466;2024-03-07T11:55:22;13.40;99.90
21149;DHT22;10732;51.472;6.466;2024-03-07T11:57:49;12.80;99.90
21149;DHT22;10732;51.472;6.466;2024-03-07T12:00:17;13.30;99.90
21149;DHT22;10732;51.472;6.466;2024-03-07T12:02:43;13.20;99.90
21149;DHT22;10732;51.472;6.466;2024-03-07T12:05:09;13.80;99.90
21149;DHT22;10732;51.472;6.466;2024-03-07T12:07:35;12.70;99.90
21149;DHT22;10732;51.472;6.466;2024-03-07T12:10:04;12.10;99.90
21149;DHT22;10732;51.472;6.466;2024-03-07T12:12:30;11.30;99.90
21149;DHT22;10732;51.472;6.466;2024-03-07T12:14:56;11.30;99.90
21149;DHT22;10732;51.472;6.466;2024-03-07T12:17:22;11.20;99.90
21149;DHT22;10732;51.472;6.466;2024-03-07T12:19:49;11.40;99.90
21149;DHT22;10732;51.472;6.466;2024-03-07T12:22:20;11.20;99.90
21149;DHT22;10732;51.472;6.466;2024-03-07T12:25:04;11.10;99.90
21149;DHT22;10732;51.472;6.466;2024-03-07T12:27:33;11.20;99.90
21149;DHT22;10732;51.472;6.466;2024-03-07T12:29:59;10.60;99.90
21149;DHT22;10732;51.472;6.466;2024-03-07T12:32:32;10.70;99.90
21149;DHT22;10732;51.472;6.466;2024-03-07T12:34:58;10.70;99.90
21149;DHT22;10732;51.472;6.466;2024-03-07T12:37:24;10.70;99.90
21149;DHT22;10732;51.472;6.466;2024-03-07T12:39:52;10.70;99.90
21149;DHT22;10732;51.472;6.466;2024-03-07T12:42:27;11.10;99.90
21149;DHT22;10732;51.472;6.466;2024-03-07T12:44:54;11.20;99.90
21149;DHT22;10732;51.472;6.466;2024-03-07T12:47:20;10.90;99.90
21149;DHT22;10732;51.472;6.466;2024-03-07T12:49:46;11.00;99.90
21149;DHT22;10732;51.472;6.466;2024-03-07T12:52:12;11.10;99.90
21149;DHT22;10732;51.472;6.466;2024-03-07T12:54:41;11.10;99.90
21149;DHT22;10732;51.472;6.466;2024-03-07T12:57:08;11.30;99.90
21149;DHT22;10732;51.472;6.466;2024-03-07T12:59:37;10.80;99.90
21149;DHT22;10732;51.472;6.466;2024-03-07T13:02:06;10.90;99.90
21149;DHT22;10732;51.472;6.466;2024-03-07T13:04:32;11.20;99.90
21149;DHT22;10732;51.472;6.466;2024-03-07T13:06:58;10.90;99.90
21149;DHT22;10732;51.472;6.466;2024-03-07T13:09:26;11.10;99.90
21149;DHT22;10732;51.472;6.466;2024-03-07T13:11:57;11.10;99.90
21149;DHT22;10732;51.472;6.466;2024-03-07T13:14:22;11.00;99.90
21149;DHT22;10732;51.472;6.466;2024-03-07T13:16:48;10.70;99.90
21149;DHT22;10732;51.472;6.466;2024-03-07T13:19:15;10.70;99.90
21149;DHT22;10732;51.472;6.466;2024-03-07T13:21:46;10.70;99.90
21149;DHT22;10732;51.472;6.466;2024-03-07T13:24:12;10.50;99.90
21149;DHT22;10732;51.472;6.466;2024-03-07T13:26:37;10.60;99.90
21149;DHT22;10732;51.472;6.466;2024-03-07T13:29:03;10.60;99.90
21149;DHT22;10732;51.472;6.466;2024-03-07T13:31:30;10.30;99.90
21149;DHT22;10732;51.472;6.466;2024-03-07T13:33:55;10.00;99.90
21149;DHT22;10732;51.472;6.466;2024-03-07T13:36:21;10.20;99.90
21149;DHT22;10732;51.472;6.466;2024-03-07T13:38:53;10.30;99.90
21149;DHT22;10732;51.472;6.466;2024-03-07T13:41:20;10.30;99.90
21149;DHT22;10732;51.472;6.466;2024-03-07T13:43:46;10.10;99.90
21149;DHT22;10732;51.472;6.466;2024-03-07T13:46:13;9.90;99.90
21149;DHT22;10732;51.472;6.466;2024-03-07T13:48:40;10.10;99.90
21149;DHT22;10732;51.472;6.466;2024-03-07T13:51:08;10.20;99.90
21149;DHT22;10732;51.472;6.466;2024-03-07T13:53:34;10.30;99.90
21149;DHT22;10732;51.472;6.466;2024-03-07T14:01:20;9.70;99.90
21149;DHT22;10732;51.472;6.466;2024-03-07T14:09:51;9.90;99.90
21149;DHT22;10732;51.472;6.466;2024-03-07T14:12:47;9.80;99.90
21149;DHT22;10732;51.472;6.466;2024-03-07T14:21:58;9.80;99.90
21149;DHT22;10732;51.472;6.466;2024-03-07T14:27:26;9.90;99.90
21149;DHT22;10732;51.472;6.466;2024-03-07T14:32:39;9.90;99.90
21149;DHT22;10732;51.472;6.466;2024-03-07T14:37:55;10.00;99.90
21149;DHT22;10732;51.472;6.466;2024-03-07T14:40:22;10.10;99.90
21149;DHT22;10732;51.472;6.466;2024-03-07T14:42:48;9.90;99.90
21149;DHT22;10732;51.472;6.466;2024-03-07T14:45:22;9.90;99.90
21149;DHT22;10732;51.472;6.466;2024-03-07T14:47:50;9.90;99.90
21149;DHT22;10732;51.472;6.466;2024-03-07T14:50:18;9.90;99.90
21149;DHT22;10732;51.472;6.466;2024-03-07T14:52:46;9.90;99.90
21149;DHT22;10732;51.472;6.466;2024-03-07T14:55:12;10.00;99.90
21149;DHT22;10732;51.472;6.466;2024-03-07T14:57:40;9.90;99.90
21149;DHT22;10732;51.472;6.466;2024-03-07T15:00:08;9.90;99.90
21149;DHT22;10732;51.472;6.466;2024-03-07T15:02:48;10.00;99.90
21149;DHT22;10732;51.472;6.466;2024-03-07T15:05:15;10.20;99.90
21149;DHT22;10732;51.472;6.466;2024-03-07T15:07:45;10.20;99.90
21149;DHT22;10732;51.472;6.466;2024-03-07T15:10:18;10.20;99.90
21149;DHT22;10732;51.472;6.466;2024-03-07T15:12:46;10.20;99.90
21149;DHT22;10732;51.472;6.466;2024-03-07T15:15:14;10.20;99.90
21149;DHT22;10732;51.472;6.466;2024-03-07T15:17:41;10.00;99.90
21149;DHT22;10732;51.472;6.466;2024-03-07T15:20:09;9.90;99.90
21149;DHT22;10732;51.472;6.466;2024-03-07T15:22:41;9.90;99.90
21149;DHT22;10732;51.472;6.466;2024-03-07T15:25:12;9.80;99.90
21149;DHT22;10732;51.472;6.466;2024-03-07T15:27:40;9.90;99.90
21149;DHT22;10732;51.472;6.466;2024-03-07T15:30:06;9.80;99.90
21149;DHT22;10732;51.472;6.466;2024-03-07T15:32:36;9.90;99.90
21149;DHT22;10732;51.472;6.466;2024-03-07T15:35:02;9.80;99.90
21149;DHT22;10732;51.472;6.466;2024-03-07T15:37:29;9.80;99.90
21149;DHT22;10732;51.472;6.466;2024-03-07T15:39:54;9.80;99.90
21149;DHT22;10732;51.472;6.466;2024-03-07T15:42:20;9.80;99.90
21149;DHT22;10732;51.472;6.466;2024-03-07T15:44:45;9.60;99.90
21149;DHT22;10732;51.472;6.466;2024-03-07T15:47:11;9.60;99.90
21149;DHT22;10732;51.472;6.466;2024-03-07T15:49:38;9.50;99.90
21149;DHT22;10732;51.472;6.466;2024-03-07T15:52:06;9.40;99.90
21149;DHT22;10732;51.472;6.466;2024-03-07T15:54:33;9.40;99.90
21149;DHT22;10732;51.472;6.466;2024-03-07T15:56:58;9.40;99.90
21149;DHT22;10732;51.472;6.466;2024-03-07T15:59:27;9.40;99.90
21149;DHT22;10732;51.472;6.466;2024-03-07T16:01:52;9.30;99.90
21149;DHT22;10732;51.472;6.466;2024-03-07T16:04:18;9.30;99.90
21149;DHT22;10732;51.472;6.466;2024-03-07T16:06:43;9.20;99.90
21149;DHT22;10732;51.472;6.466;2024-03-07T16:09:09;9.20;99.90
21149;DHT22;10732;51.472;6.466;2024-03-07T16:11:35;9.10;99.90
21149;DHT22;10732;51.472;6.466;2024-03-07T16:14:00;9.10;99.90
21149;DHT22;10732;51.472;6.466;2024-03-07T16:16:26;9.10;99.90